Time;durP1;ratioP1;P1;durP2;ratioP2;P2;SDS_P1;SDS_P2;PMS_P1;PMS_P2;Temp;Humidity;BMP_temperature;BMP_pressure;BME280_temperature;BME280_humidity;BME280_pressure;Samples;Min_cycle;Max_cycle;Signal;HPM_P1;HPM_P2
2022/08/04 00:02:41;;;;;;;3.77;1.50;;;;;;;;;;4996923;28;20225;-85
2022/08/04 00:05:56;;;;;;;2.03;1.60;;;;;;;;;;4997070;28;20187;-83
2022/08/04 00:09:06;;;;;;;2.43;1.30;;;;;;;;;;5002148;28;20205;-84
2022/08/04 00:12:11;;;;;;;3.50;1.67;;;;;;;;;;5005295;28;20233;-82
2022/08/04 00:15:16;;;;;;;1.83;1.37;;;;;;;;;;5015634;28;20189;-85
2022/08/04 00:18:29;;;;;;;1.60;1.33;;;;;;;;;;4994427;28;20193;-85
2022/08/04 00:21:36;;;;;;;4.70;1.60;;;;;;;;;;4994369;28;20189;-84
2022/08/04 00:24:40;;;;;;;3.20;1.47;;;;;;;;;;4994767;28;20178;-84
2022/08/04 00:27:45;;;;;;;2.50;1.80;;;;;;;;;;5017658;28;20178;-85
2022/08/04 00:30:50;;;;;;;5.23;1.53;;;;;;;;;;5015050;28;20201;-84
2022/08/04 00:33:55;;;;;;;4.10;1.73;;;;;;;;;;4993501;28;20225;-85
2022/08/04 00:36:59;;;;;;;3.97;1.43;;;;;;;;;;4993836;28;20182;-82
2022/08/04 00:40:21;;;;;;;1.67;1.17;;;;;;;;;;5016061;28;20233;-82
2022/08/04 00:43:32;;;;;;;2.53;1.80;;;;;;;;;;5004662;28;20209;-84
2022/08/04 00:46:53;;;;;;;2.90;1.50;;;;;;;;;;4985395;28;20194;-84
2022/08/04 00:50:02;;;;;;;1.60;1.40;;;;;;;;;;5008285;28;20183;-85
2022/08/04 00:53:12;;;;;;;3.20;1.50;;;;;;;;;;4985024;28;20222;-83
2022/08/04 00:56:43;;;;;;;2.63;1.60;;;;;;;;;;5007920;28;20527;-84
2022/08/04 01:00:06;;;;;;;1.50;1.40;;;;;;;;;;5008182;28;20511;-84
2022/08/04 01:03:27;;;;;;;5.07;1.73;;;;;;;;;;4975304;28;20218;-82
2022/08/04 01:06:46;;;;;;;3.60;1.60;;;;;;;;;;5015933;28;20190;-84
2022/08/04 01:10:00;;;;;;;4.90;1.60;;;;;;;;;;4994535;28;20198;-84
2022/08/04 01:13:24;;;;;;;4.63;1.67;;;;;;;;;;5005124;28;20221;-82
2022/08/04 01:16:30;;;;;;;1.47;1.30;;;;;;;;;;5016213;28;20186;-84
2022/08/04 01:19:44;;;;;;;2.17;1.70;;;;;;;;;;4994593;28;20177;-83
2022/08/04 01:23:36;;;;;;;1.80;1.70;;;;;;;;;;5017341;28;20221;-84
2022/08/04 01:26:56;;;;;;;3.20;1.47;;;;;;;;;;4967767;28;20203;-86
2022/08/04 01:30:00;;;;;;;2.67;1.87;;;;;;;;;;4992482;28;20186;-84
2022/08/04 01:33:11;;;;;;;1.97;1.50;;;;;;;;;;4994297;28;20221;-84
2022/08/04 01:36:19;;;;;;;3.73;1.67;;;;;;;;;;4994789;28;20197;-84
2022/08/04 01:39:41;;;;;;;1.70;1.60;;;;;;;;;;4992345;28;20174;-82
2022/08/04 01:42:51;;;;;;;2.73;1.87;;;;;;;;;;5003776;28;20221;-83
2022/08/04 01:46:00;;;;;;;2.17;1.50;;;;;;;;;;5014462;28;20190;-85
2022/08/04 01:49:06;;;;;;;5.13;1.63;;;;;;;;;;5004525;28;20182;-84
2022/08/04 01:52:10;;;;;;;5.43;1.77;;;;;;;;;;4991711;28;20225;-83
2022/08/04 01:55:16;;;;;;;5.80;1.73;;;;;;;;;;5002303;28;20190;-85
2022/08/04 01:58:23;;;;;;;1.90;1.70;;;;;;;;;;5014228;28;20185;-83
2022/08/04 02:01:27;;;;;;;1.97;1.77;;;;;;;;;;5015072;28;20178;-82
2022/08/04 02:04:34;;;;;;;2.17;1.80;;;;;;;;;;5013812;28;20201;-82
2022/08/04 02:07:53;;;;;;;2.67;1.77;;;;;;;;;;5014820;28;20201;-82
2022/08/04 02:11:14;;;;;;;4.17;2.00;;;;;;;;;;4992039;28;20620;-82
2022/08/04 02:14:40;;;;;;;2.37;1.50;;;;;;;;;;5014453;28;20209;-82
2022/08/04 02:18:04;;;;;;;6.07;1.77;;;;;;;;;;5014057;28;20201;-82
2022/08/04 02:21:08;;;;;;;5.43;2.20;;;;;;;;;;5014789;28;20185;-82
2022/08/04 02:24:15;;;;;;;4.07;1.80;;;;;;;;;;5014555;28;20181;-82
2022/08/04 02:27:27;;;;;;;2.47;2.20;;;;;;;;;;5002951;28;20186;-82
2022/08/04 02:30:37;;;;;;;3.37;2.27;;;;;;;;;;5002783;28;20185;-82
2022/08/04 02:33:45;;;;;;;2.40;2.00;;;;;;;;;;5013183;28;20229;-85
2022/08/04 02:36:51;;;;;;;2.40;2.03;;;;;;;;;;4990565;28;20201;-85
2022/08/04 02:39:58;;;;;;;3.30;2.20;;;;;;;;;;4971063;28;20231;-85
2022/08/04 02:43:05;;;;;;;3.90;1.83;;;;;;;;;;4982410;28;20218;-85
2022/08/04 02:46:09;;;;;;;3.63;2.00;;;;;;;;;;4993557;28;20174;-87
2022/08/04 02:49:14;;;;;;;3.43;2.20;;;;;;;;;;4982022;28;20182;-85
2022/08/04 02:52:19;;;;;;;3.60;2.50;;;;;;;;;;4984269;28;20720;-85
2022/08/04 02:55:26;;;;;;;4.10;2.20;;;;;;;;;;5004562;28;20646;-87
2022/08/04 02:58:33;;;;;;;4.57;2.20;;;;;;;;;;4993456;28;20174;-85
2022/08/04 03:01:40;;;;;;;2.13;1.87;;;;;;;;;;4982264;28;20186;-87
2022/08/04 03:04:57;;;;;;;4.43;2.30;;;;;;;;;;5004640;28;20175;-87
2022/08/04 03:08:38;;;;;;;2.73;2.40;;;;;;;;;;4970950;28;20182;-85
2022/08/04 03:12:04;;;;;;;4.13;2.63;;;;;;;;;;4971249;28;20175;-85
2022/08/04 03:15:27;;;;;;;2.77;2.30;;;;;;;;;;4971089;28;20175;-85
2022/08/04 03:19:01;;;;;;;2.97;2.43;;;;;;;;;;4978431;28;20190;-83
2022/08/04 03:22:27;;;;;;;4.77;2.47;;;;;;;;;;4994141;28;20573;-82
2022/08/04 03:26:07;;;;;;;2.47;2.10;;;;;;;;;;4995467;28;20174;-86
2022/08/04 03:29:44;;;;;;;3.70;2.40;;;;;;;;;;5007258;28;20194;-83
2022/08/04 03:33:13;;;;;;;3.00;2.10;;;;;;;;;;4977187;28;20234;-82
2022/08/04 03:36:45;;;;;;;3.13;2.10;;;;;;;;;;4986654;28;20194;-82
2022/08/04 03:39:55;;;;;;;4.43;2.50;;;;;;;;;;5013965;28;20668;-83
2022/08/04 03:43:37;;;;;;;4.30;2.10;;;;;;;;;;5005421;28;20567;-82
2022/08/04 03:46:51;;;;;;;4.80;2.50;;;;;;;;;;4986257;28;20203;-82
2022/08/04 03:50:45;;;;;;;4.17;2.67;;;;;;;;;;4997592;28;20182;-82
2022/08/04 03:54:26;;;;;;;3.07;2.30;;;;;;;;;;4931063;28;20219;-84
2022/08/04 03:58:01;;;;;;;21.23;3.70;;;;;;;;;;5007838;28;20206;-82
2022/08/04 04:01:33;;;;;;;34.17;4.00;;;;;;;;;;5000693;28;20672;-86
2022/08/04 04:05:11;;;;;;;4.70;2.40;;;;;;;;;;5015625;28;20188;-86
2022/08/04 04:08:27;;;;;;;6.47;2.50;;;;;;;;;;5016103;28;20181;-87
2022/08/04 04:11:56;;;;;;;5.30;2.60;;;;;;;;;;5016879;28;20190;-85
2022/08/04 04:15:25;;;;;;;8.30;2.63;;;;;;;;;;4992964;28;20174;-85
2022/08/04 04:18:45;;;;;;;3.37;2.60;;;;;;;;;;5004758;28;20189;-84
2022/08/04 04:21:56;;;;;;;3.50;2.50;;;;;;;;;;4994147;28;20182;-82
2022/08/04 04:25:09;;;;;;;4.47;2.40;;;;;;;;;;5016799;28;20510;-84
2022/08/04 04:28:14;;;;;;;4.57;2.50;;;;;;;;;;5015197;28;20189;-85
2022/08/04 04:31:41;;;;;;;10.63;2.80;;;;;;;;;;4999047;28;20181;-83
2022/08/04 04:35:16;;;;;;;8.90;3.10;;;;;;;;;;5015524;28;20205;-84
2022/08/04 04:38:36;;;;;;;3.93;2.20;;;;;;;;;;5017562;28;20202;-84
2022/08/04 04:41:55;;;;;;;5.53;2.50;;;;;;;;;;4997909;28;20182;-80
2022/08/04 04:45:10;;;;;;;4.83;2.63;;;;;;;;;;5022940;28;20178;-85
2022/08/04 04:48:37;;;;;;;2.87;2.57;;;;;;;;;;4994878;28;20645;-84
2022/08/04 04:51:51;;;;;;;3.20;2.27;;;;;;;;;;5001475;28;20186;-84
2022/08/04 04:55:14;;;;;;;5.37;2.50;;;;;;;;;;5016172;28;20201;-85
2022/08/04 04:58:20;;;;;;;2.63;2.37;;;;;;;;;;5028730;28;20193;-81
2022/08/04 05:01:24;;;;;;;3.20;2.20;;;;;;;;;;5027648;28;20636;-81
2022/08/04 05:04:31;;;;;;;3.97;2.67;;;;;;;;;;5005371;28;20169;-81
2022/08/04 05:08:01;;;;;;;4.80;2.73;;;;;;;;;;4994420;28;20521;-84
2022/08/04 05:11:36;;;;;;;7.87;2.70;;;;;;;;;;4994078;28;20197;-81
2022/08/04 05:14:48;;;;;;;8.93;2.70;;;;;;;;;;5015958;28;20206;-81
2022/08/04 05:17:56;;;;;;;5.57;3.03;;;;;;;;;;4975599;28;20546;-81
2022/08/04 05:21:21;;;;;;;8.23;2.60;;;;;;;;;;4985337;28;20182;-81
2022/08/04 05:24:27;;;;;;;9.67;2.87;;;;;;;;;;5008843;28;20189;-81
2022/08/04 05:27:44;;;;;;;11.97;3.03;;;;;;;;;;5003908;28;20178;-81
2022/08/04 05:31:00;;;;;;;8.63;2.57;;;;;;;;;;4980618;28;20202;-81
2022/08/04 05:34:12;;;;;;;6.53;2.40;;;;;;;;;;5010082;28;20213;-81
2022/08/04 05:37:19;;;;;;;6.80;3.00;;;;;;;;;;5004493;28;20629;-81
2022/08/04 05:40:24;;;;;;;7.70;3.13;;;;;;;;;;5005488;28;20197;-81
2022/08/04 05:43:29;;;;;;;8.53;3.00;;;;;;;;;;5027990;28;20213;-81
2022/08/04 05:46:36;;;;;;;5.23;2.70;;;;;;;;;;5026914;28;20197;-81
2022/08/04 05:49:40;;;;;;;13.87;3.17;;;;;;;;;;5015872;28;20209;-81
2022/08/04 05:52:45;;;;;;;13.83;3.20;;;;;;;;;;5004285;28;20588;-81
2022/08/04 05:55:50;;;;;;;19.40;3.20;;;;;;;;;;4995514;28;20178;-82
2022/08/04 05:58:55;;;;;;;7.97;3.33;;;;;;;;;;4995529;28;20530;-81
2022/08/04 06:02:01;;;;;;;10.40;3.60;;;;;;;;;;4995728;28;20217;-81
2022/08/04 06:05:06;;;;;;;10.20;3.60;;;;;;;;;;4984710;28;20181;-81
2022/08/04 06:08:10;;;;;;;12.07;3.57;;;;;;;;;;5007508;28;20187;-81
2022/08/04 06:11:16;;;;;;;10.10;3.07;;;;;;;;;;5022298;28;20573;-81
2022/08/04 06:14:22;;;;;;;4.43;2.47;;;;;;;;;;4992536;28;20201;-84
2022/08/04 06:17:34;;;;;;;4.10;2.60;;;;;;;;;;4972956;28;20194;-84
2022/08/04 06:20:41;;;;;;;4.90;2.43;;;;;;;;;;4995619;28;20198;-84
2022/08/04 06:23:48;;;;;;;3.13;2.30;;;;;;;;;;4987767;28;20696;-84
2022/08/04 06:26:53;;;;;;;11.27;2.90;;;;;;;;;;4991699;28;20197;-84
2022/08/04 06:29:59;;;;;;;17.00;3.17;;;;;;;;;;5014441;28;20196;-84
2022/08/04 06:33:12;;;;;;;7.43;2.00;;;;;;;;;;4991762;28;20599;-84
2022/08/04 06:36:17;;;;;;;4.03;2.60;;;;;;;;;;5015351;28;20193;-84
2022/08/04 06:39:26;;;;;;;4.00;2.13;;;;;;;;;;4992480;28;20190;-84
2022/08/04 06:42:31;;;;;;;4.23;2.17;;;;;;;;;;4995894;28;20225;-84
2022/08/04 06:45:38;;;;;;;6.70;2.40;;;;;;;;;;4983713;28;20187;-84
2022/08/04 06:48:44;;;;;;;4.47;2.90;;;;;;;;;;4995201;28;20182;-84
2022/08/04 06:51:50;;;;;;;4.33;2.80;;;;;;;;;;4983447;28;20546;-84
2022/08/04 06:54:54;;;;;;;6.47;3.00;;;;;;;;;;4972340;28;20210;-84
2022/08/04 06:58:00;;;;;;;4.93;2.70;;;;;;;;;;4998653;28;20198;-84
2022/08/04 07:01:04;;;;;;;8.50;3.30;;;;;;;;;;4999176;28;20177;-84
2022/08/04 07:04:10;;;;;;;3.13;2.50;;;;;;;;;;4987810;28;20200;-84
2022/08/04 07:07:15;;;;;;;9.63;3.07;;;;;;;;;;5000408;28;20178;-90
2022/08/04 07:10:21;;;;;;;6.30;2.73;;;;;;;;;;4976664;28;20202;-84
2022/08/04 07:13:26;;;;;;;8.93;3.80;;;;;;;;;;4993094;28;20225;-84
2022/08/04 07:16:32;;;;;;;8.53;2.93;;;;;;;;;;4987852;28;20202;-84
2022/08/04 07:19:36;;;;;;;9.87;2.73;;;;;;;;;;4987406;28;20214;-84
2022/08/04 07:22:42;;;;;;;9.03;2.60;;;;;;;;;;4987325;28;20689;-84
2022/08/04 07:25:51;;;;;;;3.47;2.30;;;;;;;;;;5001698;28;20191;-85
2022/08/04 07:28:56;;;;;;;8.87;3.30;;;;;;;;;;5006781;28;20196;-84
2022/08/04 07:32:01;;;;;;;12.33;3.13;;;;;;;;;;5007313;28;20215;-85
2022/08/04 07:35:06;;;;;;;5.80;2.37;;;;;;;;;;4996003;28;20687;-84
2022/08/04 07:38:11;;;;;;;2.97;2.10;;;;;;;;;;5018395;28;20199;-84
2022/08/04 07:41:19;;;;;;;3.60;2.50;;;;;;;;;;4995251;28;20190;-85
2022/08/04 07:44:24;;;;;;;3.40;2.30;;;;;;;;;;5018004;28;20181;-84
2022/08/04 07:47:28;;;;;;;2.70;2.10;;;;;;;;;;5007264;28;20192;-85
2022/08/04 07:50:33;;;;;;;3.40;2.30;;;;;;;;;;4991571;28;20663;-84
2022/08/04 07:53:39;;;;;;;5.15;2.13;;;;;;;;;;5004919;28;20213;-84
2022/08/04 07:56:44;;;;;;;2.28;2.08;;;;;;;;;;5027582;28;20216;-84
2022/08/04 07:59:48;;;;;;;4.05;2.25;;;;;;;;;;5004768;28;20206;-84
2022/08/04 08:02:54;;;;;;;6.00;2.25;;;;;;;;;;4993690;28;20680;-85
2022/08/04 08:05:58;;;;;;;3.75;2.63;;;;;;;;;;5005193;28;20176;-84
2022/08/04 08:09:20;;;;;;;4.75;2.60;;;;;;;;;;4993576;28;20203;-84
2022/08/04 08:12:24;;;;;;;3.45;2.40;;;;;;;;;;5016403;28;20225;-85
2022/08/04 08:15:29;;;;;;;6.57;2.33;;;;;;;;;;4993009;28;20208;-85
2022/08/04 08:18:34;;;;;;;2.92;2.20;;;;;;;;;;4984898;28;20192;-84
2022/08/04 08:21:39;;;;;;;14.10;2.75;;;;;;;;;;4984738;28;20180;-85
2022/08/04 08:24:43;;;;;;;6.55;2.30;;;;;;;;;;4984779;28;20565;-85
2022/08/04 08:27:47;;;;;;;11.38;2.53;;;;;;;;;;5007536;28;20185;-84
2022/08/04 08:30:51;;;;;;;3.25;1.77;;;;;;;;;;5015626;28;20200;-85
2022/08/04 08:33:57;;;;;;;3.53;1.95;;;;;;;;;;4993594;28;20230;-85
2022/08/04 08:37:11;;;;;;;3.20;2.08;;;;;;;;;;5016393;28;20189;-86
2022/08/04 08:40:50;;;;;;;2.50;1.75;;;;;;;;;;5004122;28;20186;-85
2022/08/04 08:44:01;;;;;;;4.20;2.03;;;;;;;;;;4999080;28;20229;-85
2022/08/04 08:47:29;;;;;;;4.68;1.98;;;;;;;;;;5014685;28;20194;-85
2022/08/04 08:51:08;;;;;;;1.83;1.60;;;;;;;;;;5014944;28;20636;-85
2022/08/04 08:54:38;;;;;;;6.20;2.00;;;;;;;;;;5005012;28;20182;-83
2022/08/04 08:57:56;;;;;;;3.28;1.95;;;;;;;;;;5015579;28;20193;-83
2022/08/04 09:01:03;;;;;;;4.35;2.00;;;;;;;;;;5007552;28;20191;-85
2022/08/04 09:04:53;;;;;;;2.67;1.98;;;;;;;;;;4990102;28;20205;-88
2022/08/04 09:08:29;;;;;;;2.00;1.80;;;;;;;;;;5009318;28;20186;-85
2022/08/04 09:11:47;;;;;;;3.03;1.80;;;;;;;;;;5001911;28;20186;-86
2022/08/04 09:15:03;;;;;;;1.73;1.63;;;;;;;;;;4984613;28;20218;-86
2022/08/04 09:18:35;;;;;;;1.70;1.50;;;;;;;;;;4991785;28;20198;-85
2022/08/04 09:22:04;;;;;;;2.45;1.73;;;;;;;;;;5002262;28;20189;-85
2022/08/04 09:25:32;;;;;;;6.78;1.55;;;;;;;;;;5014389;28;20185;-86
2022/08/04 09:28:52;;;;;;;2.75;1.60;;;;;;;;;;5002394;28;20198;-86
2022/08/04 09:32:02;;;;;;;3.15;1.60;;;;;;;;;;5003089;28;20522;-86
2022/08/04 09:35:23;;;;;;;1.67;1.50;;;;;;;;;;5002300;28;20228;-85
2022/08/04 09:38:45;;;;;;;1.70;1.38;;;;;;;;;;4990916;28;20189;-86
2022/08/04 09:42:26;;;;;;;5.30;1.70;;;;;;;;;;4994116;28;20199;-86
2022/08/04 09:45:57;;;;;;;2.25;1.52;;;;;;;;;;4994248;28;20182;-86
2022/08/04 09:49:09;;;;;;;1.98;1.52;;;;;;;;;;5023596;23;20587;-77
2022/08/04 09:52:36;;;;;;;2.70;1.65;;;;;;;;;;5033558;28;20221;-78
2022/08/04 09:55:44;;;;;;;3.20;1.80;;;;;;;;;;5003210;28;20206;-78
2022/08/04 09:59:16;;;;;;;46.53;4.88;;;;;;;;;;5003124;28;20201;-78
2022/08/04 10:02:23;;;;;;;4.80;1.88;;;;;;;;;;5034610;28;20592;-78
2022/08/04 10:06:05;;;;;;;4.78;1.58;;;;;;;;;;5021453;28;20560;-77
2022/08/04 10:09:28;;;;;;;4.72;1.90;;;;;;;;;;5033294;28;20544;-77
2022/08/04 10:12:54;;;;;;;2.88;1.42;;;;;;;;;;5022623;28;20250;-78
2022/08/04 10:16:23;;;;;;;1.75;1.50;;;;;;;;;;5022037;28;20209;-78
2022/08/04 10:19:31;;;;;;;2.25;1.30;;;;;;;;;;5021557;28;20188;-77
2022/08/04 10:22:38;;;;;;;8.20;1.65;;;;;;;;;;5012166;28;20559;-78
2022/08/04 10:26:04;;;;;;;8.35;1.80;;;;;;;;;;5021947;28;20620;-77
2022/08/04 10:29:13;;;;;;;3.63;1.50;;;;;;;;;;5023763;28;20196;-79
2022/08/04 10:32:17;;;;;;;2.05;1.52;;;;;;;;;;5023134;28;20216;-78
2022/08/04 10:35:25;;;;;;;5.55;2.90;;;;;;;;;;5004609;28;20200;-78
2022/08/04 10:38:36;;;;;;;3.22;2.65;;;;;;;;;;5017147;28;20193;-78
2022/08/04 10:42:23;;;;;;;1.60;1.42;;;;;;;;;;5016604;28;20707;-78
2022/08/04 10:46:00;;;;;;;1.67;1.42;;;;;;;;;;5005989;28;20194;-79
2022/08/04 10:49:13;;;;;;;3.40;1.80;;;;;;;;;;5036248;28;20216;-79
2022/08/04 10:52:23;;;;;;;3.25;1.83;;;;;;;;;;5021030;28;20209;-77
2022/08/04 10:55:37;;;;;;;5.05;1.60;;;;;;;;;;5033225;28;20200;-77
2022/08/04 10:58:57;;;;;;;3.28;1.42;;;;;;;;;;5009814;28;20185;-77
2022/08/04 11:02:19;;;;;;;3.47;1.70;;;;;;;;;;5032267;28;20221;-77
2022/08/04 11:05:29;;;;;;;2.47;1.77;;;;;;;;;;5033206;28;20176;-77
2022/08/04 11:08:40;;;;;;;5.22;1.70;;;;;;;;;;5034028;28;20185;-77
2022/08/04 11:11:52;;;;;;;3.33;1.70;;;;;;;;;;5022659;28;20220;-78
2022/08/04 11:15:12;;;;;;;10.27;2.00;;;;;;;;;;5034755;28;20197;-77
2022/08/04 11:18:38;;;;;;;3.17;1.48;;;;;;;;;;5022178;28;20201;-77
2022/08/04 11:21:52;;;;;;;1.48;1.38;;;;;;;;;;5035843;28;20217;-78
2022/08/04 11:25:10;;;;;;;2.47;1.52;;;;;;;;;;5023447;28;20193;-78
2022/08/04 11:28:39;;;;;;;2.30;1.52;;;;;;;;;;5022679;28;20200;-78
2022/08/04 11:31:48;;;;;;;3.60;1.60;;;;;;;;;;5022906;28;20695;-78
2022/08/04 11:34:58;;;;;;;2.08;1.60;;;;;;;;;;5023998;28;20197;-78
2022/08/04 11:38:21;;;;;;;1.95;1.42;;;;;;;;;;5007547;28;20189;-78
2022/08/04 11:41:50;;;;;;;4.60;1.67;;;;;;;;;;5022025;28;20220;-78
2022/08/04 11:44:58;;;;;;;5.00;1.52;;;;;;;;;;5014496;28;20623;-78
2022/08/04 11:48:09;;;;;;;3.60;1.38;;;;;;;;;;5026481;28;20193;-79
2022/08/04 11:51:15;;;;;;;4.63;1.45;;;;;;;;;;5024260;28;20208;-78
2022/08/04 11:54:20;;;;;;;3.17;1.40;;;;;;;;;;5014228;28;20192;-78
2022/08/04 11:57:25;;;;;;;3.60;1.70;;;;;;;;;;5026211;28;20518;-78
2022/08/04 12:00:31;;;;;;;29.48;3.28;;;;;;;;;;5013659;28;20197;-78
2022/08/04 12:04:00;;;;;;;2.45;1.40;;;;;;;;;;5024709;28;20205;-78
2022/08/04 12:07:20;;;;;;;2.55;1.35;;;;;;;;;;5025864;28;20199;-78
2022/08/04 12:10:46;;;;;;;2.30;1.60;;;;;;;;;;5006396;28;20190;-78
2022/08/04 12:14:08;;;;;;;1.65;1.20;;;;;;;;;;5017326;28;20182;-77
2022/08/04 12:17:21;;;;;;;8.20;1.73;;;;;;;;;;5010182;28;20205;-78
2022/08/04 12:20:28;;;;;;;8.40;1.70;;;;;;;;;;5027039;28;20200;-79
2022/08/04 12:23:37;;;;;;;4.97;1.90;;;;;;;;;;5038901;28;20180;-78
2022/08/04 12:26:48;;;;;;;5.20;1.48;;;;;;;;;;5027507;28;20501;-79
2022/08/04 12:29:54;;;;;;;7.38;1.52;;;;;;;;;;5036945;28;20176;-80
2022/08/04 12:33:41;;;;;;;2.33;1.45;;;;;;;;;;5021379;28;20196;-80
2022/08/04 12:36:54;;;;;;;36.42;3.30;;;;;;;;;;5039446;28;20224;-80
2022/08/04 12:40:02;;;;;;;9.82;3.33;;;;;;;;;;5032069;28;20188;-79
2022/08/04 12:43:19;;;;;;;2.20;1.75;;;;;;;;;;5007773;28;20196;-79
2022/08/04 12:46:25;;;;;;;8.43;1.75;;;;;;;;;;5031256;28;20185;-79
2022/08/04 12:49:33;;;;;;;3.05;1.55;;;;;;;;;;5017156;28;20205;-76
2022/08/04 12:52:47;;;;;;;2.72;1.40;;;;;;;;;;5015437;28;20213;-76
2022/08/04 12:55:53;;;;;;;4.38;1.30;;;;;;;;;;5014601;28;20213;-77
2022/08/04 12:59:06;;;;;;;1.92;1.45;;;;;;;;;;5029624;28;20196;-76
2022/08/04 13:02:26;;;;;;;4.63;1.50;;;;;;;;;;5034978;28;20223;-76
2022/08/04 13:05:32;;;;;;;3.20;1.50;;;;;;;;;;5034707;28;20197;-77
2022/08/04 13:08:38;;;;;;;1.98;1.30;;;;;;;;;;5033819;28;20208;-76
2022/08/04 13:11:56;;;;;;;1.92;1.30;;;;;;;;;;5011420;28;20212;-76
2022/08/04 13:15:13;;;;;;;3.45;1.65;;;;;;;;;;5034567;28;20188;-75
2022/08/04 13:18:18;;;;;;;1.80;1.40;;;;;;;;;;5017783;28;20196;-76
2022/08/04 13:21:25;;;;;;;1.48;1.30;;;;;;;;;;5021855;28;20235;-76
2022/08/04 13:24:31;;;;;;;5.18;1.40;;;;;;;;;;5022402;28;20184;-75
2022/08/04 13:27:38;;;;;;;1.25;1.15;;;;;;;;;;5034542;28;20188;-76
2022/08/04 13:30:45;;;;;;;1.55;1.40;;;;;;;;;;5034958;28;20220;-76
2022/08/04 13:33:52;;;;;;;2.25;1.20;;;;;;;;;;5034431;28;20185;-76
2022/08/04 13:36:57;;;;;;;2.38;1.30;;;;;;;;;;5033762;28;20667;-75
2022/08/04 13:40:05;;;;;;;3.38;1.20;;;;;;;;;;5014604;28;20177;-76
2022/08/04 13:43:21;;;;;;;4.53;1.67;;;;;;;;;;5021253;28;20188;-75
2022/08/04 13:46:28;;;;;;;2.30;1.30;;;;;;;;;;5021549;28;20543;-75
2022/08/04 13:49:33;;;;;;;2.00;1.30;;;;;;;;;;5033663;28;20678;-76
2022/08/04 13:52:38;;;;;;;3.05;1.40;;;;;;;;;;5033267;28;20223;-75
2022/08/04 13:55:42;;;;;;;11.18;1.50;;;;;;;;;;5021696;28;20545;-75
2022/08/04 13:58:48;;;;;;;4.00;1.30;;;;;;;;;;5033792;28;20203;-76
2022/08/04 14:02:07;;;;;;;2.78;1.50;;;;;;;;;;5026056;28;20691;-76
2022/08/04 14:05:21;;;;;;;3.65;1.63;;;;;;;;;;5015761;28;20186;-76
2022/08/04 14:08:27;;;;;;;1.52;1.40;;;;;;;;;;5010497;28;20177;-76
2022/08/04 14:11:37;;;;;;;3.38;1.60;;;;;;;;;;5033070;28;20212;-75
2022/08/04 14:14:47;;;;;;;113.60;7.47;;;;;;;;;;5020665;28;20184;-75
2022/08/04 14:17:51;;;;;;;2.70;1.50;;;;;;;;;;5031736;28;20231;-75
2022/08/04 14:21:10;;;;;;;3.15;1.25;;;;;;;;;;5032567;28;20223;-75
2022/08/04 14:24:34;;;;;;;2.90;1.60;;;;;;;;;;5005334;28;20659;-75
2022/08/04 14:27:44;;;;;;;12.70;1.70;;;;;;;;;;5019492;28;20177;-76
2022/08/04 14:30:48;;;;;;;5.10;1.50;;;;;;;;;;5017322;28;20201;-76
2022/08/04 14:33:53;;;;;;;1.77;1.30;;;;;;;;;;5033483;28;20192;-77
2022/08/04 14:37:06;;;;;;;1.60;1.30;;;;;;;;;;5032405;28;20212;-77
2022/08/04 14:40:23;;;;;;;2.75;1.30;;;;;;;;;;5033731;28;20192;-78
2022/08/04 14:43:28;;;;;;;1.98;1.27;;;;;;;;;;5021002;28;20188;-77
2022/08/04 14:46:32;;;;;;;5.75;1.60;;;;;;;;;;5020532;28;20531;-77
2022/08/04 14:49:52;;;;;;;3.22;1.20;;;;;;;;;;5035029;28;20670;-83
2022/08/04 14:53:16;;;;;;;4.30;1.42;;;;;;;;;;5022555;28;20177;-81
2022/08/04 14:56:20;;;;;;;4.05;1.83;;;;;;;;;;5013227;28;20212;-80
2022/08/04 14:59:24;;;;;;;1.73;1.20;;;;;;;;;;4997594;28;20181;-80
2022/08/04 15:02:28;;;;;;;2.63;1.33;;;;;;;;;;4993658;28;20595;-80
2022/08/04 15:05:35;;;;;;;1.75;1.38;;;;;;;;;;5004460;28;20181;-82
2022/08/04 15:08:39;;;;;;;3.05;1.30;;;;;;;;;;5026587;28;20655;-80
2022/08/04 15:11:43;;;;;;;5.32;1.52;;;;;;;;;;4990065;28;20220;-81
2022/08/04 15:14:48;;;;;;;3.83;1.42;;;;;;;;;;5014293;28;20181;-79
2022/08/04 15:17:52;;;;;;;1.95;1.15;;;;;;;;;;5019341;28;20213;-79
2022/08/04 15:20:57;;;;;;;2.33;1.40;;;;;;;;;;5023068;28;21604;-78
2022/08/04 15:24:02;;;;;;;2.17;1.40;;;;;;;;;;5040576;28;20189;-79
2022/08/04 15:27:07;;;;;;;4.47;1.20;;;;;;;;;;5036176;28;20255;-79
2022/08/04 15:30:14;;;;;;;25.50;2.50;;;;;;;;;;5028220;28;20192;-78
2022/08/04 15:33:23;;;;;;;4.97;1.30;;;;;;;;;;5028462;28;20200;-79
2022/08/04 15:36:37;;;;;;;6.00;1.58;;;;;;;;;;5033069;28;20217;-79
2022/08/04 15:39:50;;;;;;;1.92;1.40;;;;;;;;;;5032221;28;20173;-79
2022/08/04 15:43:32;;;;;;;1.40;1.30;;;;;;;;;;5041199;28;20185;-80
2022/08/04 15:46:39;;;;;;;1.40;1.30;;;;;;;;;;4999533;28;20201;-80
2022/08/04 15:49:43;;;;;;;2.97;1.52;;;;;;;;;;5053489;22;20261;-84
2022/08/04 15:53:07;;;;;;;1.98;1.42;;;;;;;;;;5043003;28;20176;-84
2022/08/04 15:56:24;;;;;;;3.55;2.10;;;;;;;;;;5063845;28;20176;-84
2022/08/04 15:59:59;;;;;;;2.80;1.35;;;;;;;;;;5052518;28;20223;-85
2022/08/04 16:03:32;;;;;;;1.67;1.58;;;;;;;;;;5052522;28;20169;-84
2022/08/04 16:06:36;;;;;;;6.20;1.52;;;;;;;;;;5065100;28;20188;-84
2022/08/04 16:09:40;;;;;;;1.63;1.33;;;;;;;;;;5040974;28;20611;-84
2022/08/04 16:13:02;;;;;;;3.15;1.10;;;;;;;;;;5052220;28;20179;-84
2022/08/04 16:16:07;;;;;;;12.90;2.05;;;;;;;;;;5052415;28;20639;-84
2022/08/04 16:19:36;;;;;;;2.25;1.70;;;;;;;;;;5052383;28;20660;-84
2022/08/04 16:22:48;;;;;;;6.15;1.45;;;;;;;;;;5051881;28;20180;-84
2022/08/04 16:25:53;;;;;;;2.85;1.40;;;;;;;;;;5051832;28;20184;-84
2022/08/04 16:28:57;;;;;;;2.88;1.40;;;;;;;;;;5052175;28;20179;-84
2022/08/04 16:32:04;;;;;;;1.50;1.40;;;;;;;;;;5031940;28;20180;-84
2022/08/04 16:35:25;;;;;;;4.07;1.25;;;;;;;;;;5031915;28;20176;-84
2022/08/04 16:38:30;;;;;;;1.52;1.42;;;;;;;;;;5032227;28;20212;-84
2022/08/04 16:41:39;;;;;;;4.43;1.63;;;;;;;;;;5020413;28;20188;-84
2022/08/04 16:44:43;;;;;;;3.05;1.45;;;;;;;;;;5032049;28;20184;-84
2022/08/04 16:47:47;;;;;;;2.15;1.55;;;;;;;;;;5020700;28;20180;-84
2022/08/04 16:50:58;;;;;;;2.83;1.48;;;;;;;;;;5031865;28;20232;-84
2022/08/04 16:54:03;;;;;;;2.95;1.83;;;;;;;;;;5031563;28;20176;-84
2022/08/04 16:57:08;;;;;;;13.63;2.47;;;;;;;;;;5020284;28;20204;-84
2022/08/04 17:00:12;;;;;;;5.05;1.50;;;;;;;;;;5042667;28;20554;-84
2022/08/04 17:03:16;;;;;;;5.65;1.42;;;;;;;;;;5056438;28;20196;-84
2022/08/04 17:06:21;;;;;;;4.40;1.38;;;;;;;;;;5043395;28;20189;-84
2022/08/04 17:09:26;;;;;;;5.30;2.10;;;;;;;;;;5042601;28;20196;-84
2022/08/04 17:12:30;;;;;;;5.72;1.80;;;;;;;;;;5020752;28;20180;-84
2022/08/04 17:15:34;;;;;;;9.63;2.45;;;;;;;;;;5031572;28;20172;-84
2022/08/04 17:18:40;;;;;;;19.67;2.50;;;;;;;;;;5020133;28;20667;-84
2022/08/04 17:21:45;;;;;;;9.32;1.67;;;;;;;;;;5042811;28;20176;-84
2022/08/04 17:24:50;;;;;;;3.45;1.80;;;;;;;;;;5031186;28;20177;-84
2022/08/04 17:28:01;;;;;;;4.93;2.10;;;;;;;;;;5042423;28;20172;-84
2022/08/04 17:31:08;;;;;;;4.38;1.55;;;;;;;;;;5019508;28;20216;-84
2022/08/04 17:34:14;;;;;;;5.03;1.48;;;;;;;;;;5030761;28;20173;-84
2022/08/04 17:37:20;;;;;;;4.85;1.75;;;;;;;;;;5031776;28;20208;-84
2022/08/04 17:40:24;;;;;;;3.63;1.92;;;;;;;;;;5030636;28;20228;-83
2022/08/04 17:43:39;;;;;;;3.63;1.75;;;;;;;;;;5019420;28;20180;-84
2022/08/04 17:46:45;;;;;;;3.45;1.60;;;;;;;;;;5030668;28;20181;-84
2022/08/04 17:49:49;;;;;;;3.22;1.40;;;;;;;;;;5049764;28;20685;-84
2022/08/04 17:53:01;;;;;;;2.58;1.73;;;;;;;;;;5035760;28;20191;-84
2022/08/04 17:56:05;;;;;;;3.58;1.90;;;;;;;;;;5055819;28;20199;-83
2022/08/04 17:59:25;;;;;;;6.53;1.70;;;;;;;;;;5062533;28;20179;-83
2022/08/04 18:02:31;;;;;;;6.43;1.70;;;;;;;;;;5051031;28;20522;-83
2022/08/04 18:05:35;;;;;;;4.35;1.70;;;;;;;;;;5062159;28;20179;-83
2022/08/04 18:08:39;;;;;;;4.03;1.33;;;;;;;;;;5061702;28;20181;-83
2022/08/04 18:12:09;;;;;;;1.77;1.42;;;;;;;;;;5030291;28;20180;-83
2022/08/04 18:15:21;;;;;;;1.58;1.40;;;;;;;;;;5030775;28;20176;-84
2022/08/04 18:18:25;;;;;;;2.83;1.50;;;;;;;;;;5042034;28;20210;-83
2022/08/04 18:21:30;;;;;;;3.63;1.60;;;;;;;;;;5021217;28;20212;-84
2022/08/04 18:24:34;;;;;;;2.20;1.30;;;;;;;;;;5026190;28;20204;-83
2022/08/04 18:27:46;;;;;;;3.88;1.67;;;;;;;;;;5021539;28;20178;-83
2022/08/04 18:30:50;;;;;;;1.77;1.48;;;;;;;;;;5043658;28;20214;-83
2022/08/04 18:33:55;;;;;;;5.38;1.77;;;;;;;;;;5020735;28;20197;-83
2022/08/04 18:36:59;;;;;;;26.60;3.13;;;;;;;;;;5020642;28;20664;-83
2022/08/04 18:40:05;;;;;;;9.20;2.05;;;;;;;;;;5020920;28;20577;-83
2022/08/04 18:43:10;;;;;;;10.90;1.92;;;;;;;;;;5031405;28;20177;-83
2022/08/04 18:46:14;;;;;;;4.50;1.88;;;;;;;;;;5019645;28;20183;-83
2022/08/04 18:49:19;;;;;;;16.17;2.25;;;;;;;;;;5054761;28;20198;-83
2022/08/04 18:52:23;;;;;;;10.82;2.30;;;;;;;;;;5060494;28;20185;-83
2022/08/04 18:55:28;;;;;;;5.00;1.80;;;;;;;;;;5050479;28;20180;-83
2022/08/04 18:58:32;;;;;;;2.30;1.65;;;;;;;;;;5050629;28;20234;-83
2022/08/04 19:01:37;;;;;;;3.22;1.63;;;;;;;;;;5053838;28;20188;-83
2022/08/04 19:04:42;;;;;;;3.05;1.70;;;;;;;;;;5018919;28;20199;-83
2022/08/04 19:07:46;;;;;;;4.40;1.50;;;;;;;;;;5030195;28;20183;-83
2022/08/04 19:10:50;;;;;;;7.70;2.42;;;;;;;;;;5041686;28;20215;-83
2022/08/04 19:13:55;;;;;;;2.63;1.55;;;;;;;;;;5019300;28;20174;-83